Time;durP1;ratioP1;P1;durP2;ratioP2;P2;SDS_P1;SDS_P2;PMS_P1;PMS_P2;Temp;Humidity;BMP_temperature;BMP_pressure;BME280_temperature;BME280_humidity;BME280_pressure;Samples;Min_cycle;Max_cycle;Signal;HPM_P1;HPM_P2
2021/10/13 00:00:53;;;;;;;2.27;1.90;;;;;;;2.39;100.00;100849.75;4986585;28;20227;-73
2021/10/13 00:03:19;;;;;;;2.00;1.80;;;;;;;2.34;100.00;100848.84;4981138;28;20256;-73
2021/10/13 00:05:46;;;;;;;2.53;2.00;;;;;;;2.33;100.00;100854.84;4985617;28;20841;-73
2021/10/13 00:08:12;;;;;;;2.00;1.80;;;;;;;2.25;100.00;100860.78;4982925;28;20195;-74
2021/10/13 00:10:38;;;;;;;2.27;1.90;;;;;;;2.34;100.00;100848.84;4981224;28;20237;-74
2021/10/13 00:13:05;;;;;;;2.20;2.00;;;;;;;2.39;100.00;100847.19;4977603;28;20308;-74
2021/10/13 00:15:33;;;;;;;3.37;2.00;;;;;;;2.26;100.00;100841.91;4986539;28;20207;-74
2021/10/13 00:17:59;;;;;;;6.50;2.00;;;;;;;2.23;100.00;100856.44;4981380;28;20774;-74
2021/10/13 00:20:26;;;;;;;4.83;2.27;;;;;;;2.16;100.00;100846.94;4984571;28;20233;-74
2021/10/13 00:22:52;;;;;;;3.57;1.60;;;;;;;2.08;100.00;100852.00;4982056;28;20590;-74
2021/10/13 00:25:19;;;;;;;2.77;1.90;;;;;;;2.03;100.00;100853.63;4981755;28;20204;-74
2021/10/13 00:27:45;;;;;;;3.37;2.17;;;;;;;1.97;100.00;100846.72;4984172;28;20206;-74
2021/10/13 00:30:12;;;;;;;6.57;2.13;;;;;;;1.96;100.00;100859.56;4985604;28;20229;-74
2021/10/13 00:32:40;;;;;;;2.50;2.13;;;;;;;1.95;100.00;100858.66;4981977;28;20200;-74
2021/10/13 00:35:06;;;;;;;2.50;1.83;;;;;;;1.91;100.00;100858.63;4984553;28;20765;-74
2021/10/13 00:37:33;;;;;;;3.37;2.30;;;;;;;1.88;100.00;100865.47;4982476;28;20314;-74
2021/10/13 00:39:59;;;;;;;3.23;1.80;;;;;;;1.88;100.00;100860.31;4984503;28;20224;-74
2021/10/13 00:42:25;;;;;;;3.40;2.00;;;;;;;1.91;100.00;100861.19;4984051;28;20302;-74
2021/10/13 00:44:52;;;;;;;5.33;2.13;;;;;;;1.86;100.00;100859.41;4985425;28;20592;-74
2021/10/13 00:47:18;;;;;;;4.17;2.20;;;;;;;1.81;100.00;100860.19;4984499;28;20218;-74
2021/10/13 00:49:46;;;;;;;3.40;2.30;;;;;;;1.80;100.00;100851.63;4984287;28;20512;-74
2021/10/13 00:52:13;;;;;;;4.43;1.90;;;;;;;1.79;100.00;100860.16;4979767;28;20200;-74
2021/10/13 00:54:40;;;;;;;3.40;1.90;;;;;;;1.87;100.00;100860.28;4984035;28;20206;-74
2021/10/13 00:57:06;;;;;;;3.83;1.90;;;;;;;1.93;100.00;100864.66;4977364;28;20202;-74
2021/10/13 00:59:33;;;;;;;5.00;2.23;;;;;;;1.81;100.00;100862.78;4978530;28;20244;-73
2021/10/13 01:02:03;;;;;;;3.60;1.90;;;;;;;1.74;100.00;100858.38;4981681;28;20201;-74
2021/10/13 01:04:43;;;;;;;2.47;2.13;;;;;;;1.76;100.00;100861.84;4978323;28;20221;-74
2021/10/13 01:07:22;;;;;;;3.50;2.07;;;;;;;1.68;100.00;100862.59;4981498;28;21216;-74
2021/10/13 01:09:55;;;;;;;5.23;2.10;;;;;;;1.63;100.00;100866.81;4983585;28;20598;-73
2021/10/13 01:12:31;;;;;;;3.27;1.93;;;;;;;1.69;100.00;100871.19;4981616;28;20206;-74
2021/10/13 01:15:08;;;;;;;3.03;1.70;;;;;;;1.68;100.00;100877.16;4981104;28;20205;-74
2021/10/13 01:17:37;;;;;;;4.37;1.80;;;;;;;1.62;100.00;100875.38;4984867;28;20684;-74
2021/10/13 01:20:13;;;;;;;4.50;1.73;;;;;;;1.63;100.00;100871.94;4982418;28;20749;-74
2021/10/13 01:23:11;;;;;;;3.60;2.07;;;;;;;1.65;100.00;100878.00;4991332;28;20216;-74
2021/10/13 01:25:49;;;;;;;2.60;1.90;;;;;;;1.61;100.00;100883.91;4956227;28;20217;-74
2021/10/13 01:28:19;;;;;;;5.23;2.40;;;;;;;1.60;100.00;100886.47;4979924;28;20227;-74
2021/10/13 01:30:52;;;;;;;4.60;2.20;;;;;;;1.59;100.00;100883.03;4984148;28;20225;-74
2021/10/13 01:33:23;;;;;;;2.37;1.77;;;;;;;1.68;100.00;100887.44;4982128;28;20683;-74
2021/10/13 01:35:54;;;;;;;3.60;1.97;;;;;;;1.65;100.00;100892.53;4985147;28;20211;-73
2021/10/13 01:38:24;;;;;;;2.27;2.07;;;;;;;1.70;100.00;100888.34;4980592;28;20227;-73
2021/10/13 01:40:54;;;;;;;7.53;1.80;;;;;;;1.74;100.00;100899.53;4982328;28;20233;-73
2021/10/13 01:43:23;;;;;;;2.00;1.80;;;;;;;1.69;100.00;100894.34;4983202;28;20215;-74
2021/10/13 01:45:52;;;;;;;3.87;1.97;;;;;;;1.72;100.00;100890.94;4984488;28;20647;-74
2021/10/13 01:48:19;;;;;;;4.07;1.80;;;;;;;1.73;100.00;100900.38;4983593;28;20707;-74
2021/10/13 01:50:49;;;;;;;2.37;1.80;;;;;;;1.67;100.00;100896.00;4985931;28;20850;-74
2021/10/13 01:53:18;;;;;;;3.77;1.60;;;;;;;1.70;100.00;100904.63;4983382;28;20672;-74
2021/10/13 01:55:46;;;;;;;5.07;1.70;;;;;;;1.60;100.00;100904.44;4977662;28;20778;-74
2021/10/13 01:58:14;;;;;;;3.07;2.00;;;;;;;1.68;100.00;100903.72;4980944;28;20571;-74
2021/10/13 02:04:09;;;;;;;2.93;1.60;;;;;;;1.66;100.00;100909.69;4983192;28;20257;-73
2021/10/13 02:06:38;;;;;;;3.07;1.80;;;;;;;1.63;100.00;100910.50;4982165;28;20225;-74
2021/10/13 02:09:06;;;;;;;3.23;1.40;;;;;;;1.73;100.00;100913.22;4988426;28;20233;-74
2021/10/13 02:11:33;;;;;;;2.40;1.90;;;;;;;1.76;100.00;100915.81;4982190;28;20207;-74
2021/10/13 02:14:02;;;;;;;4.93;1.67;;;;;;;1.68;100.00;100914.00;4976487;28;20268;-74
2021/10/13 02:16:31;;;;;;;5.20;1.87;;;;;;;1.67;100.00;100917.44;4981369;28;20718;-74
2021/10/13 02:19:01;;;;;;;5.83;1.90;;;;;;;1.75;100.00;100924.41;4981148;28;20220;-74
2021/10/13 02:21:30;;;;;;;5.10;1.43;;;;;;;1.60;100.00;100927.59;4985030;28;20205;-74
2021/10/13 02:23:59;;;;;;;2.07;1.80;;;;;;;1.69;100.00;100928.59;4984534;28;20216;-74
2021/10/13 02:26:30;;;;;;;2.57;1.40;;;;;;;1.54;100.00;100935.22;4981807;28;20211;-74
2021/10/13 02:29:03;;;;;;;6.60;1.70;;;;;;;1.57;100.00;100935.28;4984899;28;20586;-74
2021/10/13 02:31:30;;;;;;;1.50;1.40;;;;;;;1.63;100.00;100938.78;4984161;28;20642;-74
2021/10/13 02:33:57;;;;;;;5.00;1.63;;;;;;;1.62;100.00;100939.63;4983704;28;20215;-74
2021/10/13 02:36:24;;;;;;;1.27;1.17;;;;;;;1.60;100.00;100938.75;4985094;28;20203;-74
2021/10/13 02:38:51;;;;;;;4.37;1.80;;;;;;;1.62;100.00;100946.47;4984485;28;20221;-73
2021/10/13 02:41:18;;;;;;;3.07;1.77;;;;;;;1.61;100.00;100947.31;4988092;28;20206;-74
2021/10/13 02:43:44;;;;;;;1.97;1.50;;;;;;;1.51;100.00;100946.28;4981306;28;20205;-74
2021/10/13 02:46:19;;;;;;;2.90;1.50;;;;;;;1.58;100.00;100955.84;4989034;28;20571;-74
2021/10/13 02:48:54;;;;;;;1.73;1.33;;;;;;;1.72;100.00;100953.47;4982717;28;20219;-73
2021/10/13 02:51:29;;;;;;;2.40;1.50;;;;;;;1.61;100.00;100957.59;4991933;28;20288;-74
2021/10/13 02:54:01;;;;;;;3.73;1.57;;;;;;;1.44;100.00;100954.75;4984823;28;20211;-74
2021/10/13 02:56:32;;;;;;;3.83;1.80;;;;;;;1.33;100.00;100952.88;4991794;28;20232;-74
2021/10/13 02:59:06;;;;;;;2.50;1.60;;;;;;;1.26;100.00;100968.16;4986881;28;20241;-74
2021/10/13 03:01:42;;;;;;;3.30;1.47;;;;;;;1.48;100.00;100967.69;4986115;28;20207;-74
2021/10/13 03:04:13;;;;;;;3.10;1.80;;;;;;;1.45;100.00;100967.63;4989051;28;20713;-74
2021/10/13 03:06:45;;;;;;;2.17;1.43;;;;;;;1.44;100.00;100968.50;4993067;28;20205;-74
2021/10/13 03:09:13;;;;;;;2.70;1.63;;;;;;;1.57;100.00;100971.25;4991811;28;20217;-74
2021/10/13 03:11:41;;;;;;;3.70;1.40;;;;;;;1.39;100.00;100974.38;4982970;28;20220;-74
2021/10/13 03:14:08;;;;;;;2.30;1.40;;;;;;;1.46;100.00;100971.94;4985595;28;20208;-74
2021/10/13 03:16:36;;;;;;;1.77;1.47;;;;;;;1.38;100.00;100975.22;4984856;28;20208;-74
2021/10/13 03:19:02;;;;;;;1.80;1.57;;;;;;;1.46;100.00;100983.91;4980558;28;20237;-74
2021/10/13 03:21:30;;;;;;;1.60;1.47;;;;;;;1.47;100.00;100983.94;4989482;28;20209;-74
2021/10/13 03:23:57;;;;;;;2.27;1.73;;;;;;;1.45;100.00;100985.63;4982820;28;21050;-74
2021/10/13 03:26:25;;;;;;;6.73;1.90;;;;;;;1.36;100.00;100985.47;4984046;28;20610;-74
2021/10/13 03:28:51;;;;;;;3.23;1.60;;;;;;;1.37;100.00;100983.75;4980603;28;20194;-74
2021/10/13 03:31:18;;;;;;;1.67;1.43;;;;;;;1.31;100.00;100994.78;4985065;28;20228;-74
2021/10/13 03:33:48;;;;;;;3.40;1.70;;;;;;;1.33;100.00;100993.97;4984366;28;20209;-74
2021/10/13 03:36:15;;;;;;;4.77;2.20;;;;;;;1.26;100.00;100998.97;5000822;28;20267;-74
2021/10/13 03:38:41;;;;;;;3.47;1.57;;;;;;;1.23;100.00;100998.91;4987060;28;20201;-74
2021/10/13 03:43:35;;;;;;;2.77;1.87;;;;;;;1.18;100.00;101009.13;5019137;28;20270;-74
2021/10/13 03:46:02;;;;;;;3.70;1.60;;;;;;;1.13;100.00;101006.47;5003217;28;20609;-74
2021/10/13 03:48:30;;;;;;;1.63;1.53;;;;;;;1.31;100.00;101010.22;5011966;28;20212;-74
2021/10/13 03:50:57;;;;;;;2.50;1.73;;;;;;;1.25;100.00;101005.84;5006625;28;20251;-74
2021/10/13 03:53:23;;;;;;;1.93;1.50;;;;;;;1.32;100.00;101014.53;5011503;28;20236;-74
2021/10/13 03:55:49;;;;;;;1.60;1.50;;;;;;;1.25;100.00;101016.13;5005626;28;20232;-74
2021/10/13 03:58:16;;;;;;;2.17;1.73;;;;;;;1.22;100.00;101017.75;5011434;28;20206;-74
2021/10/13 04:00:43;;;;;;;2.40;1.60;;;;;;;1.06;100.00;101012.34;5006775;28;20234;-74
2021/10/13 04:03:10;;;;;;;4.30;1.70;;;;;;;1.23;100.00;101014.34;5009295;28;20237;-74
2021/10/13 04:05:36;;;;;;;1.70;1.40;;;;;;;1.23;100.00;101016.91;5005827;28;20204;-74
2021/10/13 04:08:07;;;;;;;2.70;1.80;;;;;;;1.17;100.00;101022.81;5007402;28;20578;-74
2021/10/13 04:10:33;;;;;;;3.43;1.97;;;;;;;1.24;100.00;101024.66;5008195;28;20578;-74
2021/10/13 04:13:00;;;;;;;5.40;1.60;;;;;;;1.27;100.00;101027.28;5006459;28;20212;-74
2021/10/13 04:15:26;;;;;;;2.17;1.77;;;;;;;1.22;100.00;101034.03;5005521;28;20226;-74
2021/10/13 04:17:54;;;;;;;2.03;1.67;;;;;;;1.16;100.00;101041.59;5003259;28;20204;-74
2021/10/13 04:20:20;;;;;;;1.47;1.37;;;;;;;1.12;100.00;101035.53;5006881;28;20638;-74
2021/10/13 04:22:46;;;;;;;4.20;1.70;;;;;;;1.08;100.00;101038.03;5006807;28;20201;-74
2021/10/13 04:25:13;;;;;;;2.03;1.60;;;;;;;1.05;100.00;101043.97;5009592;28;20205;-74
2021/10/13 04:27:39;;;;;;;1.90;1.70;;;;;;;1.06;100.00;101039.72;4987359;28;20209;-74
2021/10/13 04:30:07;;;;;;;2.33;1.60;;;;;;;1.02;100.00;101040.47;5010773;28;20267;-74
2021/10/13 04:32:33;;;;;;;1.90;1.60;;;;;;;0.99;100.00;101045.56;5003474;28;20575;-74
2021/10/13 04:35:01;;;;;;;2.80;1.60;;;;;;;1.01;100.00;101038.75;5007034;28;20212;-74
2021/10/13 04:37:27;;;;;;;3.07;1.80;;;;;;;0.93;100.00;101042.06;5001913;28;20204;-74
2021/10/13 04:39:54;;;;;;;3.20;1.90;;;;;;;0.89;100.00;101047.09;5007202;28;20590;-74
2021/10/13 04:42:20;;;;;;;3.13;1.60;;;;;;;0.80;100.00;101045.19;4987568;28;20213;-74
2021/10/13 04:44:46;;;;;;;6.73;1.87;;;;;;;0.98;100.00;101042.13;5007562;28;20671;-74
2021/10/13 04:47:13;;;;;;;4.73;1.67;;;;;;;1.04;100.00;101049.06;5004736;28;20287;-74
2021/10/13 04:49:39;;;;;;;2.57;1.70;;;;;;;0.91;100.00;101045.41;5007049;28;20981;-74
2021/10/13 04:52:07;;;;;;;3.70;1.83;;;;;;;1.03;100.00;101039.66;5003602;28;20682;-74
2021/10/13 04:54:33;;;;;;;4.50;1.50;;;;;;;0.79;100.00;101045.16;5007988;28;20225;-74
2021/10/13 04:57:00;;;;;;;2.80;1.80;;;;;;;0.82;100.00;101046.09;5003277;28;20208;-74
2021/10/13 04:59:26;;;;;;;1.57;1.47;;;;;;;0.72;100.00;101046.72;5011489;28;20716;-74
2021/10/13 05:01:52;;;;;;;4.67;1.73;;;;;;;0.80;100.00;101049.47;5003140;28;20691;-74
2021/10/13 05:04:19;;;;;;;2.13;1.43;;;;;;;0.69;100.00;101046.69;5004553;28;20577;-74
2021/10/13 05:06:45;;;;;;;3.13;2.00;;;;;;;0.87;100.00;101059.03;5006260;28;20618;-73
2021/10/13 05:09:14;;;;;;;5.57;2.20;;;;;;;0.78;100.00;101057.13;5002286;28;20213;-73
2021/10/13 05:11:41;;;;;;;6.10;3.17;;;;;;;0.80;100.00;101059.75;5003871;28;20214;-73
2021/10/13 05:14:07;;;;;;;4.27;2.90;;;;;;;0.69;100.00;101068.06;5003267;28;20205;-73
2021/10/13 05:16:34;;;;;;;5.83;2.47;;;;;;;0.72;100.00;101063.00;5005189;28;20211;-73
2021/10/13 05:19:01;;;;;;;4.67;2.30;;;;;;;0.59;100.00;101065.28;5002993;28;20240;-73
2021/10/13 05:21:27;;;;;;;4.10;2.30;;;;;;;0.57;100.00;101063.53;5004843;28;20250;-73
2021/10/13 05:23:54;;;;;;;4.23;2.07;;;;;;;0.66;100.00;101073.13;5003925;28;20197;-73
2021/10/13 05:26:22;;;;;;;6.87;2.17;;;;;;;0.60;100.00;101072.13;5013548;28;20197;-73
2021/10/13 05:28:48;;;;;;;3.60;1.90;;;;;;;0.63;100.00;101082.47;5002484;28;20650;-73
2021/10/13 05:31:15;;;;;;;2.83;2.00;;;;;;;0.43;100.00;101092.31;5008459;28;20227;-73
2021/10/13 05:33:41;;;;;;;3.40;1.97;;;;;;;0.44;100.00;101088.88;5003053;28;20200;-73
2021/10/13 05:36:07;;;;;;;2.43;1.90;;;;;;;0.49;100.00;101095.00;5005753;28;20203;-73
2021/10/13 05:38:34;;;;;;;5.27;2.43;;;;;;;0.60;100.00;101095.22;5002433;28;20201;-73
2021/10/13 05:41:00;;;;;;;2.33;1.90;;;;;;;0.48;100.00;101100.97;5004784;28;20229;-73
2021/10/13 05:43:28;;;;;;;8.03;2.17;;;;;;;0.48;100.00;101099.25;5003840;28;20769;-73
2021/10/13 05:45:55;;;;;;;3.00;2.20;;;;;;;0.46;100.00;101110.31;5005201;28;20197;-73
2021/10/13 05:48:21;;;;;;;6.13;2.33;;;;;;;0.41;100.00;101110.22;5002529;28;20200;-73
2021/10/13 05:50:48;;;;;;;2.87;2.30;;;;;;;0.61;100.00;101117.50;5003176;28;20224;-73
2021/10/13 05:53:15;;;;;;;3.17;2.20;;;;;;;0.60;100.00;101114.06;5006194;28;20199;-73
2021/10/13 05:55:41;;;;;;;3.53;2.23;;;;;;;0.64;100.00;101122.72;5003683;28;20860;-73
2021/10/13 05:58:07;;;;;;;2.90;2.60;;;;;;;0.69;100.00;101128.81;5009472;28;20570;-74
2021/10/13 06:00:35;;;;;;;6.83;2.77;;;;;;;0.74;100.00;101129.78;4999349;28;20231;-73
2021/10/13 06:03:02;;;;;;;3.80;2.23;;;;;;;0.78;100.00;101131.59;5004099;28;20235;-73
2021/10/13 06:05:28;;;;;;;2.67;2.23;;;;;;;0.82;100.00;101132.50;4988025;28;20258;-73
2021/10/13 06:07:55;;;;;;;5.37;2.37;;;;;;;0.93;100.00;101137.06;5003784;28;20209;-73
2021/10/13 06:10:21;;;;;;;4.17;2.50;;;;;;;1.06;100.00;101134.75;5004502;28;20732;-73
2021/10/13 06:12:48;;;;;;;3.30;2.07;;;;;;;1.13;100.00;101144.31;5005762;28;20200;-73
2021/10/13 06:15:14;;;;;;;3.13;2.10;;;;;;;1.25;100.00;101141.09;5009338;28;20210;-73
2021/10/13 06:17:42;;;;;;;8.03;3.10;;;;;;;1.28;100.00;101138.59;5006945;28;20597;-73
2021/10/13 06:20:09;;;;;;;4.87;2.57;;;;;;;1.58;100.00;101151.19;5007697;28;20229;-73
2021/10/13 06:22:37;;;;;;;6.00;2.53;;;;;;;1.61;100.00;101143.53;5014617;28;20205;-73
2021/10/13 06:25:04;;;;;;;5.17;2.90;;;;;;;1.75;100.00;101148.94;5000313;28;20205;-73
2021/10/13 06:27:31;;;;;;;5.20;2.67;;;;;;;1.80;100.00;101152.47;5011263;28;20204;-73
2021/10/13 06:29:57;;;;;;;5.63;3.07;;;;;;;1.89;100.00;101157.75;5005355;28;20272;-73
2021/10/13 06:32:23;;;;;;;5.03;2.67;;;;;;;1.95;100.00;101162.13;5018024;28;20204;-73
2021/10/13 06:34:51;;;;;;;3.03;2.53;;;;;;;1.98;100.00;101174.22;5006066;28;20213;-73
2021/10/13 06:37:18;;;;;;;4.97;2.57;;;;;;;2.14;100.00;101171.06;5021747;28;20210;-74
2021/10/13 06:39:44;;;;;;;4.13;2.77;;;;;;;2.24;100.00;101172.09;5001637;28;20231;-74
2021/10/13 06:42:10;;;;;;;6.37;2.87;;;;;;;2.23;100.00;101180.63;5008574;28;20218;-73
2021/10/13 06:44:37;;;;;;;8.50;3.50;;;;;;;2.42;100.00;101184.38;5005948;28;20680;-74
2021/10/13 06:47:03;;;;;;;4.00;2.73;;;;;;;2.51;100.00;101186.25;5001524;28;21190;-73
2021/10/13 06:49:29;;;;;;;4.70;3.17;;;;;;;2.56;100.00;101185.47;5004350;28;20330;-74
2021/10/13 06:51:57;;;;;;;7.10;3.40;;;;;;;2.63;100.00;101189.00;5008087;28;20660;-74
2021/10/13 06:54:23;;;;;;;5.27;2.97;;;;;;;2.64;100.00;101185.59;5008896;28;20208;-74
2021/10/13 06:56:50;;;;;;;7.33;3.33;;;;;;;2.71;100.00;101194.25;5012516;28;20679;-74
2021/10/13 06:59:16;;;;;;;11.50;3.73;;;;;;;2.79;100.00;101201.25;5001770;28;20577;-74
2021/10/13 07:01:42;;;;;;;5.43;3.37;;;;;;;2.88;100.00;101194.53;5004816;28;20231;-74
2021/10/13 07:04:09;;;;;;;7.93;3.47;;;;;;;3.09;100.00;101212.00;5004982;28;20229;-74
2021/10/13 07:06:35;;;;;;;7.23;3.70;;;;;;;3.12;100.00;101204.31;5007182;28;20221;-74
2021/10/13 07:09:03;;;;;;;12.43;4.50;;;;;;;3.21;100.00;101204.44;4996932;28;20200;-74
2021/10/13 07:11:29;;;;;;;10.07;4.70;;;;;;;3.23;100.00;101208.75;4997258;28;20213;-74
2021/10/13 07:13:56;;;;;;;9.63;4.00;;;;;;;3.32;100.00;101208.00;5007436;28;20204;-74
2021/10/13 07:16:22;;;;;;;9.80;4.50;;;;;;;3.41;100.00;101213.31;5005735;28;20212;-74
2021/10/13 07:18:48;;;;;;;9.77;5.10;;;;;;;3.50;100.00;101207.41;5007467;28;20208;-74
2021/10/13 07:21:15;;;;;;;7.93;4.60;;;;;;;3.58;100.00;101204.91;5003755;28;20228;-74
2021/10/13 07:23:41;;;;;;;12.10;4.70;;;;;;;3.67;100.00;101202.41;5003608;28;20205;-74
2021/10/13 07:26:09;;;;;;;10.67;4.93;;;;;;;3.80;100.00;101208.59;5000278;28;20308;-74
2021/10/13 07:28:39;;;;;;;12.17;4.27;;;;;;;3.84;100.00;101212.94;5008619;28;20224;-74
2021/10/13 07:31:06;;;;;;;7.30;3.73;;;;;;;3.88;100.00;101213.84;5003494;28;20231;-74
2021/10/13 07:33:32;;;;;;;7.43;3.93;;;;;;;3.97;100.00;101224.25;5013078;28;20204;-74
2021/10/13 07:35:59;;;;;;;7.17;3.77;;;;;;;4.07;100.00;101220.06;5001320;28;20240;-74
2021/10/13 07:38:26;;;;;;;6.67;3.40;;;;;;;4.14;100.00;101225.28;5004783;28;20211;-74
2021/10/13 07:40:53;;;;;;;6.13;3.40;;;;;;;4.18;100.00;101232.19;5002730;28;20221;-74
2021/10/13 07:43:20;;;;;;;5.87;3.30;;;;;;;4.24;100.00;101230.53;5007671;28;20205;-74
2021/10/13 07:45:47;;;;;;;8.80;3.63;;;;;;;4.31;100.00;101224.56;5004369;28;20577;-74
2021/10/13 07:48:14;;;;;;;5.50;3.47;;;;;;;4.34;100.00;101232.34;5007920;28;20221;-73
2021/10/13 07:50:40;;;;;;;4.30;3.30;;;;;;;4.44;100.00;101231.59;5004766;28;20610;-74
2021/10/13 07:53:08;;;;;;;7.50;4.03;;;;;;;4.58;100.00;101238.59;5015735;28;20207;-74
2021/10/13 07:55:35;;;;;;;5.53;3.43;;;;;;;4.66;100.00;101237.81;5007017;28;20225;-73
2021/10/13 07:58:02;;;;;;;10.90;4.30;;;;;;;4.77;100.00;101237.91;4991674;28;20238;-74
2021/10/13 08:00:29;;;;;;;7.13;4.00;;;;;;;4.90;100.00;101242.28;5005807;28;20235;-74
2021/10/13 08:02:56;;;;;;;7.03;4.13;;;;;;;4.97;100.00;101243.19;5004209;28;20193;-74
2021/10/13 08:05:22;;;;;;;8.27;4.13;;;;;;;5.08;100.00;101238.97;5010909;28;20581;-73
2021/10/13 08:07:49;;;;;;;10.73;4.47;;;;;;;5.29;100.00;101242.53;5007235;28;20745;-74
2021/10/13 08:10:16;;;;;;;11.00;5.07;;;;;;;5.55;100.00;101240.06;5007094;28;20230;-73
2021/10/13 08:12:42;;;;;;;6.13;4.37;;;;;;;5.73;100.00;101249.63;5007135;28;20682;-74
2021/10/13 08:15:11;;;;;;;7.13;4.73;;;;;;;5.80;100.00;101242.75;5006198;28;20203;-74
2021/10/13 08:17:39;;;;;;;8.90;4.87;;;;;;;5.83;100.00;101250.53;5002816;28;20292;-74
2021/10/13 08:20:08;;;;;;;12.23;5.13;;;;;;;5.90;100.00;101249.69;5004762;28;20219;-74
2021/10/13 08:22:34;;;;;;;10.87;4.60;;;;;;;5.91;100.00;101250.53;5004779;28;20205;-73
2021/10/13 08:25:01;;;;;;;8.97;3.83;;;;;;;5.95;100.00;101252.31;5008126;28;20201;-73
2021/10/13 08:27:27;;;;;;;8.20;4.57;;;;;;;5.98;100.00;101255.78;5002782;28;20216;-74
2021/10/13 08:29:54;;;;;;;10.17;6.37;;;;;;;6.09;100.00;101258.41;5002847;28;20694;-73
2021/10/13 08:32:20;;;;;;;11.53;6.80;;;;;;;6.13;100.00;101261.88;5001951;28;20212;-74
2021/10/13 08:34:48;;;;;;;11.17;6.37;;;;;;;6.22;100.00;101264.47;5004534;28;20224;-74
2021/10/13 08:37:14;;;;;;;7.40;3.73;;;;;;;6.27;100.00;101261.91;5002368;28;20233;-73
2021/10/13 08:39:41;;;;;;;3.67;2.73;;;;;;;6.35;100.00;101270.53;5007668;28;20320;-73
2021/10/13 08:42:07;;;;;;;3.23;2.50;;;;;;;6.39;100.00;101273.13;5000383;28;20231;-73
2021/10/13 08:44:34;;;;;;;4.00;2.40;;;;;;;6.44;100.00;101271.41;5011150;28;20292;-74
2021/10/13 08:47:01;;;;;;;5.87;3.30;;;;;;;6.56;100.00;101269.69;5001939;28;20208;-73
2021/10/13 08:49:28;;;;;;;2.50;2.30;;;;;;;6.67;100.00;101268.00;5007130;28;20221;-74
2021/10/13 08:51:56;;;;;;;5.57;2.97;;;;;;;6.74;100.00;101271.44;5001866;28;20197;-74
2021/10/13 08:54:22;;;;;;;5.47;2.30;;;;;;;6.85;100.00;101271.44;5004421;28;20691;-74
2021/10/13 08:56:48;;;;;;;2.00;1.80;;;;;;;6.93;100.00;101265.38;4999191;28;20205;-73
2021/10/13 08:59:39;;;;;;;3.10;1.87;;;;;;;7.05;100.00;101274.00;4999514;28;20692;-73
2021/10/13 09:02:05;;;;;;;4.33;2.00;;;;;;;7.17;100.00;101276.59;5004966;28;20213;-74
2021/10/13 09:04:32;;;;;;;3.77;2.00;;;;;;;7.30;100.00;101275.72;5003253;28;20213;-73
2021/10/13 09:07:02;;;;;;;2.73;2.33;;;;;;;7.43;100.00;101275.69;5006281;28;20204;-73
2021/10/13 09:09:29;;;;;;;2.63;1.70;;;;;;;7.54;98.88;101286.88;5005730;28;20229;-73
2021/10/13 09:11:56;;;;;;;3.53;2.50;;;;;;;7.67;100.00;101280.78;5005089;28;20203;-74
2021/10/13 09:14:25;;;;;;;2.07;1.73;;;;;;;7.79;99.96;101282.44;5002051;28;20211;-74
2021/10/13 09:16:58;;;;;;;4.77;2.33;;;;;;;7.89;99.79;101281.53;5008273;28;20209;-74
2021/10/13 09:19:27;;;;;;;5.37;3.00;;;;;;;7.96;97.85;101283.25;5002631;28;20217;-73
2021/10/13 09:21:56;;;;;;;4.17;2.00;;;;;;;8.02;95.72;101287.56;5005991;28;20224;-74
2021/10/13 09:24:26;;;;;;;3.33;2.80;;;;;;;8.07;97.09;101285.81;5002386;28;20215;-74
2021/10/13 09:26:53;;;;;;;2.23;1.63;;;;;;;8.04;92.92;101293.59;5010147;28;20205;-74
2021/10/13 09:29:19;;;;;;;1.90;1.70;;;;;;;8.10;94.85;101293.56;5001200;28;20206;-73
2021/10/13 09:31:55;;;;;;;1.37;1.20;;;;;;;8.17;94.23;101290.94;5008328;28;20220;-74
2021/10/13 09:34:21;;;;;;;1.80;1.50;;;;;;;8.23;93.34;101291.78;5007943;28;20203;-73
2021/10/13 09:36:58;;;;;;;1.90;1.50;;;;;;;8.31;95.86;101294.31;5006355;28;20677;-74
2021/10/13 09:39:27;;;;;;;2.40;1.37;;;;;;;8.33;92.90;101290.81;5008821;28;20212;-74
2021/10/13 09:42:04;;;;;;;1.30;1.20;;;;;;;8.37;92.69;101294.25;5021393;22;20205;-73
2021/10/13 09:44:33;;;;;;;3.77;1.50;;;;;;;8.40;91.84;101294.25;5028372;28;20209;-73
2021/10/13 09:47:02;;;;;;;1.77;1.47;;;;;;;8.44;92.22;101295.13;5024469;28;20691;-72
2021/10/13 09:49:31;;;;;;;5.90;2.20;;;;;;;8.42;90.67;101292.53;5025060;28;20238;-73
2021/10/13 09:52:02;;;;;;;2.93;1.67;;;;;;;8.62;92.33;101292.41;5020571;28;20709;-71
2021/10/13 09:54:30;;;;;;;2.37;1.70;;;;;;;8.79;91.82;101294.00;5023516;28;20209;-73
2021/10/13 09:56:57;;;;;;;1.30;1.13;;;;;;;8.73;87.00;101307.94;5022304;28;20225;-71
2021/10/13 09:59:23;;;;;;;3.07;1.40;;;;;;;8.89;90.00;101304.31;5017274;28;20797;-71
2021/10/13 10:01:55;;;;;;;2.00;1.40;;;;;;;8.93;88.36;101306.91;5021185;28;20560;-71
2021/10/13 10:04:25;;;;;;;2.17;1.40;;;;;;;9.04;89.04;101302.47;5028818;28;20666;-73
2021/10/13 10:06:54;;;;;;;2.93;1.43;;;;;;;9.17;87.27;101308.44;5025866;28;20201;-73
2021/10/13 10:09:22;;;;;;;2.10;1.30;;;;;;;9.15;83.98;101316.25;5023684;28;20223;-73
2021/10/13 10:12:01;;;;;;;3.00;1.13;;;;;;;9.27;86.31;101312.69;5023111;28;20195;-72
2021/10/13 10:14:46;;;;;;;2.27;1.60;;;;;;;9.20;83.17;101319.69;5019420;28;20215;-72
2021/10/13 10:17:15;;;;;;;1.80;1.27;;;;;;;9.43;86.62;101305.56;5031268;28;20877;-73
2021/10/13 10:19:43;;;;;;;1.73;1.40;;;;;;;9.70;84.99;101311.34;5020737;28;20214;-72
2021/10/13 10:22:12;;;;;;;1.77;1.50;;;;;;;9.91;84.82;101313.69;5023230;28;20237;-73
2021/10/13 10:24:40;;;;;;;1.57;1.30;;;;;;;10.23;85.75;101305.44;5021578;28;20204;-73
2021/10/13 10:27:27;;;;;;;2.83;1.50;;;;;;;10.44;81.52;101324.31;5031453;28;20569;-73
2021/10/13 10:30:21;;;;;;;2.00;1.30;;;;;;;10.55;80.32;101309.38;5017882;28;20680;-71
2021/10/13 10:33:15;;;;;;;2.17;0.97;;;;;;;10.71;76.21;101319.56;5025665;28;20219;-73
2021/10/13 10:35:44;;;;;;;1.20;1.10;;;;;;;10.81;76.53;101318.53;5020608;28;20685;-74
2021/10/13 10:38:12;;;;;;;1.77;1.23;;;;;;;10.73;74.84;101321.28;5020688;28;20227;-72
2021/10/13 10:40:39;;;;;;;1.07;0.87;;;;;;;10.75;75.22;101329.09;5029009;28;20203;-73
2021/10/13 10:43:20;;;;;;;1.13;1.00;;;;;;;10.70;77.47;101320.47;5019205;28;20255;-72
2021/10/13 10:45:51;;;;;;;2.60;1.00;;;;;;;10.49;75.97;101316.44;5022654;28;20203;-72
2021/10/13 10:48:17;;;;;;;2.10;1.10;;;;;;;10.48;76.34;101309.47;5019594;28;20673;-73
2021/10/13 10:50:58;;;;;;;1.30;1.00;;;;;;;10.71;77.79;101315.22;5027366;28;20587;-73
2021/10/13 10:53:30;;;;;;;1.83;1.00;;;;;;;10.64;76.32;101315.31;5021973;28;20252;-73
2021/10/13 10:55:59;;;;;;;1.43;0.97;;;;;;;10.58;76.21;101316.28;5022827;28;20287;-74
2021/10/13 10:58:29;;;;;;;1.87;1.10;;;;;;;10.44;74.51;101321.69;5022917;28;20211;-74
2021/10/13 11:01:00;;;;;;;1.60;1.00;;;;;;;10.46;77.13;101326.91;5028097;28;20204;-72
2021/10/13 11:03:30;;;;;;;1.67;1.00;;;;;;;10.31;75.52;101330.56;5027803;28;20316;-73
2021/10/13 11:05:57;;;;;;;3.27;1.73;;;;;;;10.16;75.46;101327.25;5025849;28;20611;-74
2021/10/13 11:08:23;;;;;;;4.40;2.83;;;;;;;9.99;75.29;101331.81;5031211;28;20207;-72
2021/10/13 11:10:50;;;;;;;2.30;1.87;;;;;;;10.05;77.81;101334.38;5031262;28;20557;-73
2021/10/13 11:13:24;;;;;;;4.10;2.83;;;;;;;9.97;76.02;101330.97;5027183;28;20231;-73
2021/10/13 11:15:51;;;;;;;4.87;2.30;;;;;;;10.00;78.41;101328.34;5023203;28;20267;-73
2021/10/13 11:18:18;;;;;;;2.77;1.20;;;;;;;9.92;77.46;101331.06;5027160;28;20207;-71
2021/10/13 11:20:46;;;;;;;3.73;1.67;;;;;;;9.83;77.21;101328.53;5024294;28;20677;-73
2021/10/13 11:23:13;;;;;;;1.70;1.30;;;;;;;9.89;77.54;101335.44;5031399;28;20216;-73
2021/10/13 11:25:41;;;;;;;2.53;1.67;;;;;;;10.08;79.46;101321.31;5024682;28;20211;-73
2021/10/13 11:28:09;;;;;;;3.67;1.53;;;;;;;10.23;77.06;101328.03;5026964;28;20199;-74
2021/10/13 11:30:38;;;;;;;2.07;1.50;;;;;;;10.28;76.57;101334.06;5028248;28;20863;-73
2021/10/13 11:33:08;;;;;;;5.13;2.00;;;;;;;10.18;78.06;101329.84;5032765;28;20698;-73
2021/10/13 11:35:35;;;;;;;2.73;2.17;;;;;;;10.05;78.46;101336.97;5027067;28;20212;-73
2021/10/13 11:38:01;;;;;;;2.70;1.60;;;;;;;10.01;78.52;101330.94;5037331;28;20628;-73